createdAt,value
2022-08-01T00:01:50.901Z,22.10
2022-08-01T00:06:44.379Z,22.13
2022-08-01T00:11:39.265Z,21.87
2022-08-01T00:16:32.691Z,21.87
2022-08-01T00:21:26.063Z,21.71
2022-08-01T00:26:19.788Z,21.61
2022-08-01T00:31:14.736Z,21.65
2022-08-01T00:36:08.185Z,21.63
2022-08-01T00:41:01.707Z,21.41
2022-08-01T00:45:55.104Z,21.36
2022-08-01T00:50:50.649Z,21.36
2022-08-01T00:55:44.894Z,21.35
2022-08-01T01:00:53.321Z,21.02
2022-08-01T01:06:04.244Z,21.00
2022-08-01T01:11:06.210Z,21.16
2022-08-01T01:16:03.777Z,21.07
2022-08-01T01:21:11.976Z,21.23
2022-08-01T01:26:30.392Z,21.06
2022-08-01T01:31:28.787Z,20.97
2022-08-01T01:36:26.888Z,21.09
2022-08-01T01:41:21.948Z,20.99
2022-08-01T01:46:23.564Z,20.98
2022-08-01T01:51:20.141Z,20.82
2022-08-01T01:56:18.419Z,20.71
2022-08-01T02:01:14.636Z,20.60
2022-08-01T02:06:09.933Z,20.71
2022-08-01T02:11:23.208Z,20.76
2022-08-01T02:16:19.644Z,20.88
2022-08-01T02:21:21.986Z,20.85
2022-08-01T02:26:20.839Z,20.52
2022-08-01T02:31:20.185Z,20.33
2022-08-01T02:36:31.174Z,20.54
2022-08-01T02:41:30.392Z,20.40
2022-08-01T02:46:30.274Z,20.46
2022-08-01T02:51:27.809Z,20.53
2022-08-01T02:56:24.781Z,20.52
2022-08-01T03:01:22.203Z,20.48
2022-08-01T03:06:17.721Z,20.54
2022-08-01T03:11:12.529Z,20.36
2022-08-01T03:16:08.616Z,20.07
2022-08-01T03:21:05.343Z,20.22
2022-08-01T03:26:00.468Z,20.19
2022-08-01T03:30:56.314Z,20.20
2022-08-01T03:35:56.440Z,19.76
2022-08-01T03:40:58.103Z,19.51
2022-08-01T03:45:55.033Z,19.53
2022-08-01T03:50:53.592Z,19.70
2022-08-01T03:55:47.374Z,19.78
2022-08-01T04:00:43.380Z,19.88
2022-08-01T04:05:37.490Z,19.80
2022-08-01T04:10:31.567Z,19.62
2022-08-01T04:15:25.220Z,19.68
2022-08-01T04:20:20.083Z,19.77
2022-08-01T04:25:21.567Z,19.82
2022-08-01T04:30:20.995Z,19.78
2022-08-01T04:35:23.348Z,19.80
2022-08-01T04:40:37.948Z,19.86
2022-08-01T04:45:32.224Z,19.52
2022-08-01T04:50:27.852Z,19.63
2022-08-01T04:55:21.269Z,19.68
2022-08-01T05:00:18.431Z,19.77
2022-08-01T05:05:13.597Z,19.93
2022-08-01T05:10:09.614Z,20.41
2022-08-01T05:15:03.045Z,20.57
2022-08-01T05:19:56.512Z,20.85
2022-08-01T05:24:50.001Z,20.93
2022-08-01T05:29:45.138Z,20.94
2022-08-01T05:34:53.979Z,21.04
2022-08-01T05:40:01.132Z,20.97
2022-08-01T05:44:55.833Z,20.83
2022-08-01T05:49:49.425Z,20.91
2022-08-01T05:54:43.177Z,21.05
2022-08-01T05:59:36.579Z,21.18
2022-08-01T06:04:31.455Z,21.39
2022-08-01T06:09:27.746Z,21.47
2022-08-01T06:14:29.544Z,21.55
2022-08-01T06:19:23.182Z,21.57
2022-08-01T06:24:17.906Z,21.61
2022-08-01T06:29:11.245Z,21.55
2022-08-01T06:34:05.695Z,21.68
2022-08-01T06:38:59.086Z,21.78
2022-08-01T06:43:54.516Z,21.83
2022-08-01T06:48:48.074Z,21.93
2022-08-01T06:53:41.598Z,22.05
2022-08-01T06:58:37.699Z,22.14
2022-08-01T07:03:52.382Z,22.18
2022-08-01T07:08:46.210Z,22.35
2022-08-01T07:13:43.973Z,22.61
2022-08-01T07:18:39.118Z,22.85
2022-08-01T07:23:33.905Z,23.16
2022-08-01T07:28:30.831Z,23.34
2022-08-01T07:33:24.523Z,23.60
2022-08-01T07:38:19.713Z,24.00
2022-08-01T07:43:13.064Z,24.30
2022-08-01T07:48:09.285Z,24.42
2022-08-01T07:53:03.493Z,24.80
2022-08-01T07:57:58.313Z,25.01
2022-08-01T08:02:51.778Z,24.92
2022-08-01T08:07:45.238Z,25.11
2022-08-01T08:12:38.867Z,25.33
2022-08-01T08:17:35.558Z,25.51
2022-08-01T08:22:32.688Z,25.85
2022-08-01T08:27:26.801Z,25.91
2022-08-01T08:32:20.221Z,26.29
2022-08-01T08:37:15.208Z,26.38
2022-08-01T08:42:10.146Z,26.57
2022-08-01T08:47:09.216Z,26.68
2022-08-01T08:52:05.084Z,26.70
2022-08-01T08:57:02.355Z,26.86
2022-08-01T09:01:56.565Z,27.06
2022-08-01T09:06:50.715Z,27.38
2022-08-01T09:11:44.145Z,27.61
2022-08-01T09:17:04.207Z,27.39
2022-08-01T09:22:00.826Z,27.42
2022-08-01T09:26:55.233Z,27.83
2022-08-01T09:31:52.918Z,27.90
2022-08-01T09:36:54.373Z,28.10
2022-08-01T09:41:48.486Z,27.93
2022-08-01T09:46:54.971Z,28.29
2022-08-01T09:52:00.190Z,28.54
2022-08-01T09:56:54.165Z,28.54
2022-08-01T10:01:50.114Z,28.69
2022-08-01T10:06:50.883Z,28.68
2022-08-01T10:11:45.489Z,28.74
2022-08-01T10:16:40.245Z,28.82
2022-08-01T10:21:45.474Z,28.66
2022-08-01T10:26:55.842Z,28.92
2022-08-01T10:31:50.912Z,28.84
2022-08-01T10:36:47.902Z,28.87
2022-08-01T10:41:42.500Z,28.94
2022-08-01T10:46:40.886Z,29.05
2022-08-01T10:51:52.357Z,29.16
2022-08-01T10:56:51.651Z,28.97
2022-08-01T11:02:00.248Z,28.99
2022-08-01T11:07:07.402Z,29.21
2022-08-01T11:12:13.095Z,29.02
2022-08-01T11:17:37.670Z,28.98
2022-08-01T11:23:26.533Z,28.82
2022-08-01T11:28:31.941Z,28.85
2022-08-01T11:39:16.889Z,28.97
2022-08-01T11:44:13.014Z,29.01
2022-08-01T11:49:28.951Z,29.26
2022-08-01T11:54:35.330Z,29.21
2022-08-01T11:59:41.362Z,28.97
2022-08-01T12:04:56.714Z,29.06
2022-08-01T12:10:02.687Z,29.10
2022-08-01T12:14:59.376Z,29.16
2022-08-01T12:19:52.780Z,29.25
2022-08-01T12:24:46.161Z,28.76
2022-08-01T12:29:44.703Z,28.73
2022-08-01T12:34:39.116Z,28.86
2022-08-01T12:39:38.379Z,29.01
2022-08-01T12:44:34.402Z,28.93
2022-08-01T12:49:29.693Z,29.02
2022-08-01T12:54:23.422Z,29.03
2022-08-01T12:59:26.084Z,29.17
2022-08-01T13:04:19.489Z,29.23
2022-08-01T13:09:14.771Z,29.23
2022-08-01T13:14:08.290Z,29.14
2022-08-01T13:19:01.923Z,28.68
2022-08-01T13:24:08.213Z,28.73
2022-08-01T13:29:08.806Z,28.85
2022-08-01T13:34:02.230Z,28.59
2022-08-01T13:39:12.999Z,28.49
2022-08-01T13:44:09.887Z,28.13
2022-08-01T13:49:15.179Z,28.34
2022-08-01T13:54:10.027Z,28.60
2022-08-01T13:59:03.972Z,28.68
2022-08-01T14:03:58.705Z,28.71
2022-08-01T14:08:52.112Z,28.68
2022-08-01T14:13:46.602Z,28.68
2022-08-01T14:18:40.417Z,28.77
2022-08-01T14:23:39.201Z,28.53
2022-08-01T14:28:33.207Z,28.29
2022-08-01T14:33:27.256Z,28.34
2022-08-01T14:38:31.447Z,28.41
2022-08-01T14:43:32.698Z,28.70
2022-08-01T14:48:26.736Z,28.70
2022-08-01T14:53:20.403Z,28.74
2022-08-01T14:58:13.859Z,28.70
2022-08-01T15:03:08.633Z,28.58
2022-08-01T15:08:02.013Z,28.36
2022-08-01T15:12:56.591Z,28.54
2022-08-01T15:17:49.997Z,28.55
2022-08-01T15:22:44.993Z,28.65
2022-08-01T15:27:38.451Z,28.68
2022-08-01T15:32:31.928Z,28.61
2022-08-01T15:37:25.722Z,28.54
2022-08-01T15:42:25.594Z,28.28
2022-08-01T15:47:20.622Z,28.06
2022-08-01T15:52:22.156Z,28.32
2022-08-01T15:57:16.184Z,28.30
2022-08-01T16:02:11.470Z,28.56
2022-08-01T16:07:05.179Z,28.67
2022-08-01T16:11:58.632Z,28.89
2022-08-01T16:16:51.978Z,28.79
2022-08-01T16:21:47.880Z,28.70
2022-08-01T16:26:41.505Z,28.77
2022-08-01T16:32:01.466Z,28.80
2022-08-01T16:36:50.292Z,28.77
2022-08-01T16:41:43.642Z,28.94
2022-08-01T16:46:37.287Z,28.92
2022-08-01T16:51:32.453Z,28.94
2022-08-01T16:56:27.844Z,28.69
2022-08-01T17:02:03.360Z,28.79
2022-08-01T17:06:35.083Z,28.57
2022-08-01T17:11:30.083Z,28.47
2022-08-01T17:16:23.880Z,28.28
2022-08-01T17:21:17.332Z,28.06
2022-08-01T17:26:10.898Z,27.73
2022-08-01T17:31:07.487Z,27.61
2022-08-01T17:36:03.994Z,27.59
2022-08-01T17:40:57.507Z,27.51
2022-08-01T17:45:51.578Z,27.47
2022-08-01T17:50:48.861Z,27.48
2022-08-01T17:55:56.004Z,27.49
2022-08-01T18:00:52.643Z,27.56
2022-08-01T18:05:49.548Z,27.24
2022-08-01T18:10:47.004Z,27.04
2022-08-01T18:15:40.807Z,26.96
2022-08-01T18:20:37.967Z,26.84
2022-08-01T18:25:35.353Z,26.77
2022-08-01T18:30:29.193Z,26.63
2022-08-01T18:35:32.425Z,26.67
2022-08-01T18:40:40.071Z,26.43
2022-08-01T18:45:35.960Z,26.53
2022-08-01T18:50:31.970Z,26.39
2022-08-01T18:55:26.092Z,26.02
2022-08-01T19:00:20.987Z,25.72
2022-08-01T19:05:14.560Z,25.83
2022-08-01T19:10:09.021Z,25.84
2022-08-01T19:15:11.767Z,25.59
2022-08-01T19:20:09.139Z,25.31
2022-08-01T19:25:02.724Z,25.17
2022-08-01T19:30:03.067Z,25.08
2022-08-01T19:35:07.306Z,24.89
2022-08-01T19:40:01.499Z,25.06
2022-08-01T19:44:59.088Z,25.07
2022-08-01T19:49:52.682Z,25.50
2022-08-01T19:54:53.438Z,25.36
2022-08-01T19:59:48.966Z,25.20
2022-08-01T20:04:44.700Z,25.34
2022-08-01T20:09:43.901Z,25.33
2022-08-01T20:14:39.163Z,25.19
2022-08-01T20:19:33.093Z,25.35
2022-08-01T20:24:29.772Z,25.27
2022-08-01T20:29:29.281Z,24.93
2022-08-01T20:34:25.963Z,25.07
2022-08-01T20:39:21.556Z,25.25
2022-08-01T20:44:17.151Z,24.86
2022-08-01T20:49:13.885Z,25.00
2022-08-01T20:54:11.840Z,24.69
2022-08-01T20:59:39.558Z,24.44
2022-08-01T21:04:55.951Z,24.23
2022-08-01T21:10:00.191Z,24.24
2022-08-01T21:14:57.611Z,24.13
2022-08-01T21:19:57.794Z,24.12
2022-08-01T21:25:01.895Z,23.73
2022-08-01T21:29:58.064Z,23.69
2022-08-01T21:34:53.101Z,24.02
2022-08-01T21:39:48.055Z,23.66
2022-08-01T21:44:46.405Z,23.92
2022-08-01T21:49:40.596Z,23.59
2022-08-01T21:54:48.697Z,23.55
2022-08-01T21:59:55.888Z,23.47
2022-08-01T22:05:02.225Z,23.55
2022-08-01T22:09:59.836Z,23.49
2022-08-01T22:14:58.703Z,23.87
2022-08-01T22:19:55.134Z,23.69
2022-08-01T22:24:50.809Z,23.53
2022-08-01T22:29:44.682Z,23.38
2022-08-01T22:34:39.458Z,23.56
2022-08-01T22:39:32.761Z,23.13
2022-08-01T22:44:35.988Z,22.92
2022-08-01T22:49:44.627Z,23.00
2022-08-01T22:54:42.000Z,22.44
2022-08-01T22:59:47.440Z,22.42
2022-08-01T23:04:47.639Z,22.73
2022-08-01T23:09:54.023Z,22.89
2022-08-01T23:14:50.895Z,23.26
2022-08-01T23:19:47.685Z,22.99
2022-08-01T23:25:03.589Z,22.89
2022-08-01T23:29:58.829Z,23.04
2022-08-01T23:34:54.391Z,22.86
2022-08-01T23:39:49.430Z,22.50
2022-08-01T23:44:43.063Z,22.43
2022-08-01T23:49:53.123Z,22.46
2022-08-01T23:54:49.186Z,22.45
2022-08-01T23:59:53.371Z,22.56
